createdAt,value
2018-04-26T00:00:30.593Z,74.10
2018-04-26T00:02:58.820Z,74.40
2018-04-26T00:05:27.046Z,74.00
2018-04-26T00:07:55.337Z,73.90
2018-04-26T00:10:23.588Z,73.60
2018-04-26T00:12:51.864Z,73.60
2018-04-26T00:15:20.099Z,73.90
2018-04-26T00:17:48.310Z,74.30
2018-04-26T00:20:16.586Z,74.20
2018-04-26T00:22:44.804Z,74.80
2018-04-26T00:25:13.038Z,75.00
2018-04-26T00:27:41.245Z,74.80
2018-04-26T00:30:09.737Z,74.80
2018-04-26T00:32:37.968Z,75.30
2018-04-26T00:35:06.280Z,75.20
2018-04-26T00:37:34.500Z,75.00
2018-04-26T00:40:04.020Z,75.80
2018-04-26T00:42:32.262Z,75.80
2018-04-26T00:45:01.258Z,73.90
2018-04-26T00:47:29.453Z,73.90
2018-04-26T00:49:58.468Z,73.80
2018-04-26T00:52:26.684Z,73.80
2018-04-26T00:54:54.905Z,74.10
2018-04-26T00:57:23.193Z,74.00
2018-04-26T00:59:51.420Z,74.30
2018-04-26T01:02:20.402Z,73.80
2018-04-26T01:04:48.736Z,73.70
2018-04-26T01:07:16.938Z,74.00
2018-04-26T01:09:45.181Z,73.40
2018-04-26T01:12:13.461Z,73.80
2018-04-26T01:14:41.685Z,74.20
2018-04-26T01:17:09.908Z,74.80
2018-04-26T01:19:38.123Z,75.00
2018-04-26T01:22:06.344Z,75.60
2018-04-26T01:24:34.564Z,76.00
2018-04-26T01:27:02.797Z,76.60
2018-04-26T01:29:31.016Z,76.40
2018-04-26T01:31:59.233Z,76.20
2018-04-26T01:34:28.218Z,76.00
2018-04-26T01:37:08.306Z,75.90
2018-04-26T01:39:36.678Z,76.00
2018-04-26T01:42:04.932Z,76.00
2018-04-26T01:44:33.932Z,77.90
2018-04-26T01:47:02.230Z,77.10
2018-04-26T01:49:30.481Z,77.10
2018-04-26T01:51:59.461Z,77.20
2018-04-26T01:54:29.384Z,77.30
2018-04-26T01:56:57.625Z,77.30
2018-04-26T01:59:27.353Z,78.00
2018-04-26T02:01:56.357Z,77.50
2018-04-26T02:04:25.360Z,77.50
2018-04-26T02:06:53.598Z,77.50
2018-04-26T02:09:21.812Z,76.80
2018-04-26T02:11:50.060Z,77.10
2018-04-26T02:14:19.056Z,77.50
2018-04-26T02:16:48.048Z,77.30
2018-04-26T02:19:17.084Z,77.20
2018-04-26T02:21:46.059Z,77.20
2018-04-26T02:24:14.342Z,77.20
2018-04-26T02:26:42.612Z,76.90
2018-04-26T02:29:11.054Z,76.70
2018-04-26T02:31:39.269Z,76.40
2018-04-26T02:34:07.501Z,76.30
2018-04-26T02:36:36.504Z,76.30
2018-04-26T02:39:05.517Z,75.20
2018-04-26T02:41:34.511Z,75.40
2018-04-26T02:44:02.743Z,75.40
2018-04-26T02:46:30.977Z,74.90
2018-04-26T02:48:59.916Z,74.70
2018-04-26T02:51:28.906Z,74.80
2018-04-26T02:53:57.129Z,74.70
2018-04-26T02:56:25.353Z,73.20
2018-04-26T02:58:53.650Z,73.10
2018-04-26T03:01:22.648Z,72.90
2018-04-26T03:03:51.612Z,72.50
2018-04-26T03:06:19.835Z,72.50
2018-04-26T03:08:48.110Z,72.50
2018-04-26T03:11:16.377Z,72.10
2018-04-26T03:13:44.859Z,71.70
2018-04-26T03:16:13.125Z,70.10
2018-04-26T03:18:43.004Z,69.30
2018-04-26T03:21:11.220Z,69.30
2018-04-26T03:23:40.213Z,69.10
2018-04-26T03:26:09.202Z,68.90
2018-04-26T03:28:38.176Z,68.80
2018-04-26T03:31:07.288Z,69.00
2018-04-26T03:33:36.161Z,68.30
2018-04-26T03:36:05.929Z,67.90
2018-04-26T03:38:34.174Z,67.90
2018-04-26T03:41:03.157Z,68.20
2018-04-26T03:43:31.399Z,68.20
2018-04-26T03:45:59.604Z,67.90
2018-04-26T03:48:27.845Z,68.00
2018-04-26T03:50:56.160Z,67.50
2018-04-26T03:53:25.149Z,67.50
2018-04-26T03:55:53.361Z,67.40
2018-04-26T03:58:21.585Z,67.30
2018-04-26T04:01:02.512Z,67.80
2018-04-26T04:03:42.716Z,67.80
2018-04-26T04:06:15.224Z,67.00
2018-04-26T04:08:44.193Z,66.50
2018-04-26T04:11:13.302Z,66.40
2018-04-26T04:13:42.271Z,66.40
2018-04-26T04:16:11.252Z,67.00
2018-04-26T04:18:39.478Z,66.80
2018-04-26T04:21:07.703Z,66.10
2018-04-26T04:23:36.718Z,67.30
2018-04-26T04:26:04.911Z,67.00
2018-04-26T04:28:33.132Z,67.00
2018-04-26T04:31:01.346Z,67.10
2018-04-26T04:33:29.610Z,67.00
2018-04-26T04:35:58.600Z,65.90
2018-04-26T04:38:27.584Z,66.00
2018-04-26T04:40:56.563Z,65.60
2018-04-26T04:43:25.200Z,65.60
2018-04-26T04:45:53.424Z,65.10
2018-04-26T04:48:21.654Z,65.30
2018-04-26T04:50:49.871Z,65.20
2018-04-26T04:53:18.097Z,65.20
2018-04-26T04:55:46.313Z,65.70
2018-04-26T04:58:14.620Z,65.40
2018-04-26T05:00:42.836Z,65.20
2018-04-26T05:03:11.551Z,65.40
2018-04-26T05:05:39.745Z,65.30
2018-04-26T05:08:08.736Z,65.60
2018-04-26T05:10:37.752Z,65.70
2018-04-26T05:13:05.993Z,65.60
2018-04-26T05:15:35.104Z,65.20
2018-04-26T05:18:04.144Z,65.00
2018-04-26T05:20:32.363Z,65.00
2018-04-26T05:23:01.346Z,64.80
2018-04-26T05:25:30.356Z,64.50
2018-04-26T05:27:59.388Z,64.80
2018-04-26T05:30:27.605Z,64.80
2018-04-26T05:32:56.588Z,65.40
2018-04-26T05:35:24.823Z,65.30
2018-04-26T05:37:53.027Z,65.30
2018-04-26T05:40:21.242Z,65.50
2018-04-26T05:42:50.218Z,65.30
2018-04-26T05:45:19.215Z,65.50
2018-04-26T05:47:48.204Z,65.00
2018-04-26T05:50:16.423Z,64.80
2018-04-26T05:52:44.681Z,65.40
2018-04-26T05:55:12.948Z,65.90
2018-04-26T05:57:41.219Z,65.60
2018-04-26T06:00:10.585Z,65.70
2018-04-26T06:02:38.797Z,65.70
2018-04-26T06:05:07.022Z,65.20
2018-04-26T06:07:35.246Z,64.80
2018-04-26T06:10:04.537Z,64.50
2018-04-26T06:12:33.519Z,65.30
2018-04-26T06:15:01.742Z,65.30
2018-04-26T06:17:29.990Z,64.20
2018-04-26T06:19:59.107Z,64.30
2018-04-26T06:22:27.301Z,64.30
2018-04-26T06:24:55.537Z,63.90
2018-04-26T06:27:23.762Z,63.40
2018-04-26T06:29:51.989Z,62.60
2018-04-26T06:32:20.196Z,61.80
2018-04-26T06:34:48.431Z,62.50
2018-04-26T06:37:17.412Z,61.50
2018-04-26T06:39:46.405Z,61.20
2018-04-26T06:42:15.409Z,61.00
2018-04-26T06:44:44.367Z,60.60
2018-04-26T06:47:12.568Z,60.60
2018-04-26T06:49:41.564Z,60.40
2018-04-26T06:52:10.563Z,59.30
2018-04-26T06:54:38.842Z,59.20
2018-04-26T06:57:07.054Z,59.30
2018-04-26T06:59:35.267Z,59.40
2018-04-26T07:02:04.264Z,62.00
2018-04-26T07:04:33.247Z,59.70
2018-04-26T07:07:01.477Z,59.70
2018-04-26T07:09:29.701Z,59.50
2018-04-26T07:11:58.746Z,58.60
2018-04-26T07:14:27.692Z,58.90
2018-04-26T07:16:56.685Z,58.70
2018-04-26T07:19:25.649Z,58.50
2018-04-26T07:21:54.081Z,58.40
2018-04-26T07:24:22.201Z,57.80
2018-04-26T07:26:50.425Z,56.10
2018-04-26T07:29:18.699Z,57.00
2018-04-26T07:31:47.728Z,57.30
2018-04-26T07:34:15.916Z,57.20
2018-04-26T07:36:44.132Z,57.90
2018-04-26T07:39:12.416Z,56.70
2018-04-26T07:41:40.637Z,57.20
2018-04-26T07:44:08.853Z,56.80
2018-04-26T07:46:37.090Z,57.20
2018-04-26T07:49:05.295Z,57.10
2018-04-26T07:51:34.315Z,54.80
2018-04-26T07:54:02.577Z,54.70
2018-04-26T07:56:30.843Z,54.70
2018-04-26T07:58:59.897Z,55.40
2018-04-26T08:01:28.952Z,54.90
2018-04-26T08:03:57.963Z,54.60
2018-04-26T08:06:26.214Z,54.60
2018-04-26T08:08:54.420Z,54.00
2018-04-26T08:11:22.722Z,55.50
2018-04-26T08:13:50.892Z,54.00
2018-04-26T08:16:20.637Z,54.90
2018-04-26T08:18:48.852Z,54.90
2018-04-26T08:21:17.096Z,55.70
2018-04-26T08:23:45.311Z,56.10
2018-04-26T08:26:13.563Z,55.60
2018-04-26T08:28:41.773Z,55.70
2018-04-26T08:31:10.001Z,55.00
2018-04-26T08:33:38.210Z,53.70
2018-04-26T08:36:06.534Z,53.60
2018-04-26T08:38:34.769Z,54.00
2018-04-26T08:41:03.298Z,53.90
2018-04-26T08:43:31.503Z,52.80
2018-04-26T08:45:59.706Z,52.90
2018-04-26T08:48:28.693Z,52.90
2018-04-26T08:50:56.937Z,52.90
2018-04-26T08:53:25.512Z,52.30
2018-04-26T08:55:53.790Z,51.50
2018-04-26T08:58:21.943Z,51.80
2018-04-26T09:00:50.215Z,52.00
2018-04-26T09:03:18.495Z,51.90
2018-04-26T09:05:46.713Z,50.20
2018-04-26T09:08:15.046Z,49.40
2018-04-26T09:10:43.265Z,48.10
2018-04-26T09:13:11.488Z,49.40
2018-04-26T09:15:39.726Z,48.50
2018-04-26T09:18:07.938Z,48.80
2018-04-26T09:20:36.897Z,45.60
2018-04-26T09:23:07.130Z,45.50
2018-04-26T09:25:36.156Z,46.40
2018-04-26T09:28:04.385Z,46.30
2018-04-26T09:30:32.601Z,46.30
2018-04-26T09:33:00.829Z,46.70
2018-04-26T09:35:29.026Z,46.40
2018-04-26T09:37:57.254Z,47.10
2018-04-26T09:40:25.496Z,47.50
2018-04-26T09:42:53.774Z,48.20
2018-04-26T09:45:21.968Z,48.20
2018-04-26T09:47:50.188Z,49.00
2018-04-26T09:50:18.480Z,48.00
2018-04-26T09:52:47.474Z,49.70
2018-04-26T09:55:16.453Z,47.90
2018-04-26T09:57:44.672Z,47.90
2018-04-26T10:00:13.105Z,48.70
2018-04-26T10:02:46.069Z,48.10
2018-04-26T10:05:14.276Z,48.10
2018-04-26T10:07:43.265Z,46.50
2018-04-26T10:10:12.530Z,45.20
2018-04-26T10:12:40.741Z,45.10
2018-04-26T10:15:09.777Z,45.60
2018-04-26T10:17:37.953Z,45.50
2018-04-26T10:20:06.357Z,44.50
2018-04-26T10:22:34.870Z,44.00
2018-04-26T10:25:03.913Z,45.00
2018-04-26T10:27:32.137Z,45.00
2018-04-26T10:30:01.272Z,45.30
2018-04-26T10:32:29.516Z,45.20
2018-04-26T10:34:57.721Z,45.60
2018-04-26T10:37:25.945Z,45.50
2018-04-26T10:39:54.219Z,44.70
2018-04-26T10:42:22.524Z,44.50
2018-04-26T10:44:50.742Z,44.00
2018-04-26T10:47:18.951Z,41.50
2018-04-26T10:49:47.949Z,41.50
2018-04-26T10:52:16.950Z,40.20
2018-04-26T10:54:45.940Z,39.90
2018-04-26T10:57:14.925Z,40.60
2018-04-26T10:59:43.917Z,40.10
2018-04-26T11:02:12.925Z,39.60
2018-04-26T11:04:41.145Z,39.60
2018-04-26T11:07:09.352Z,38.70
2018-04-26T11:09:38.337Z,39.20
2018-04-26T11:12:06.651Z,39.10
2018-04-26T11:14:34.911Z,39.90
2018-04-26T11:17:03.196Z,40.00
2018-04-26T11:19:31.418Z,39.30
2018-04-26T11:21:59.644Z,39.00
2018-04-26T11:24:28.012Z,39.10
2018-04-26T11:26:56.125Z,39.30
2018-04-26T11:29:24.433Z,39.90
2018-04-26T11:31:53.321Z,40.30
2018-04-26T11:34:22.309Z,40.60
2018-04-26T11:36:52.024Z,40.20
2018-04-26T11:39:20.240Z,40.10
2018-04-26T11:41:48.503Z,40.70
2018-04-26T11:44:17.488Z,40.00
2018-04-26T11:46:46.486Z,40.00
2018-04-26T11:49:15.469Z,38.00
2018-04-26T11:51:44.481Z,39.00
2018-04-26T11:54:12.699Z,39.00
2018-04-26T11:56:40.904Z,39.80
2018-04-26T11:59:09.197Z,39.90
2018-04-26T12:01:38.193Z,39.00
2018-04-26T12:04:07.348Z,39.20
2018-04-26T12:06:35.552Z,39.10
2018-04-26T12:09:04.560Z,40.60
2018-04-26T12:11:32.759Z,40.60
2018-04-26T12:14:00.996Z,40.70
2018-04-26T12:16:29.985Z,40.50
2018-04-26T12:18:58.966Z,40.00
2018-04-26T12:21:27.183Z,39.90
2018-04-26T12:23:55.466Z,38.70
2018-04-26T12:26:23.616Z,38.40
2018-04-26T12:28:51.885Z,37.90
2018-04-26T12:31:20.880Z,38.10
2018-04-26T12:33:49.865Z,37.90
2018-04-26T12:36:18.862Z,38.20
2018-04-26T12:38:47.836Z,37.90
2018-04-26T12:41:16.828Z,38.00
2018-04-26T12:43:45.038Z,37.90
2018-04-26T12:46:13.338Z,38.40
2018-04-26T12:48:41.599Z,38.40
2018-04-26T12:51:09.848Z,38.90
2018-04-26T12:53:38.823Z,38.30
2018-04-26T12:56:07.044Z,38.20
2018-04-26T12:58:35.262Z,37.20
2018-04-26T13:01:04.370Z,36.90
2018-04-26T13:03:33.345Z,36.90
2018-04-26T13:06:01.573Z,36.80
2018-04-26T13:08:29.769Z,37.20
2018-04-26T13:10:57.998Z,36.10
2018-04-26T13:13:26.963Z,35.00
2018-04-26T13:15:55.266Z,35.00
2018-04-26T13:18:24.276Z,37.10
2018-04-26T13:20:52.504Z,37.10
2018-04-26T13:23:20.819Z,36.20
2018-04-26T13:25:49.708Z,34.60
2018-04-26T13:28:18.688Z,35.00
2018-04-26T13:30:47.686Z,35.30
2018-04-26T13:33:16.673Z,35.70
2018-04-26T13:35:45.672Z,35.90
2018-04-26T13:38:14.645Z,36.40
2018-04-26T13:40:42.945Z,36.30
2018-04-26T13:43:12.082Z,35.90
2018-04-26T13:45:40.302Z,35.80
2018-04-26T13:48:09.269Z,35.60
2018-04-26T13:50:37.499Z,35.70
2018-04-26T13:53:05.700Z,34.70
2018-04-26T13:55:33.919Z,36.20
2018-04-26T13:58:02.885Z,34.50
2018-04-26T14:00:31.112Z,34.30
2018-04-26T14:02:59.316Z,34.40
2018-04-26T14:05:27.631Z,34.00
2018-04-26T14:07:55.880Z,32.70
2018-04-26T14:10:24.193Z,32.10
2018-04-26T14:12:52.408Z,31.80
2018-04-26T14:15:20.657Z,32.30
2018-04-26T14:17:48.872Z,33.10
2018-04-26T14:20:17.100Z,33.10
2018-04-26T14:22:45.321Z,33.20
2018-04-26T14:25:13.525Z,32.50
2018-04-26T14:27:42.516Z,33.00
2018-04-26T14:30:11.638Z,31.40
2018-04-26T14:32:39.862Z,31.40
2018-04-26T14:35:08.073Z,31.80
2018-04-26T14:37:36.464Z,32.30
2018-04-26T14:40:04.819Z,32.70
2018-04-26T14:42:33.805Z,31.40
2018-04-26T14:45:02.797Z,28.10
2018-04-26T14:47:31.844Z,28.20
2018-04-26T14:50:00.060Z,28.10
2018-04-26T14:52:28.296Z,29.80
2018-04-26T14:54:56.504Z,31.60
2018-04-26T14:57:25.528Z,30.00
2018-04-26T14:59:53.736Z,29.90
2018-04-26T15:02:21.948Z,28.50
2018-04-26T15:04:50.975Z,23.50
2018-04-26T15:07:19.246Z,23.30
2018-04-26T15:09:47.523Z,20.60
2018-04-26T15:12:16.517Z,23.40
2018-04-26T15:14:44.758Z,23.30
2018-04-26T15:17:12.971Z,23.60
2018-04-26T15:19:41.243Z,22.10
2018-04-26T15:22:10.139Z,21.60
2018-04-26T15:24:38.331Z,23.60
2018-04-26T15:27:06.585Z,27.70
2018-04-26T15:29:34.874Z,27.80
2018-04-26T15:32:03.882Z,30.40
2018-04-26T15:34:32.220Z,30.40
2018-04-26T15:37:00.511Z,30.70
2018-04-26T15:39:28.986Z,30.60
2018-04-26T15:41:57.253Z,31.10
2018-04-26T15:44:25.705Z,30.50
2018-04-26T15:46:54.009Z,30.90
2018-04-26T15:49:22.293Z,30.90
2018-04-26T15:51:50.668Z,31.10
2018-04-26T15:54:30.831Z,31.60
2018-04-26T15:57:19.795Z,31.20
2018-04-26T16:00:00.011Z,31.20
2018-04-26T16:02:57.903Z,31.40
2018-04-26T16:05:38.048Z,32.20
2018-04-26T16:08:24.752Z,32.80
2018-04-26T16:11:11.355Z,33.00
2018-04-26T16:13:57.944Z,33.50
2018-04-26T16:20:03.912Z,32.70
2018-04-26T16:26:00.899Z,34.00
2018-04-26T16:28:47.767Z,34.40
2018-04-26T16:31:33.716Z,33.70
2018-04-26T16:37:20.759Z,33.20
2018-04-26T16:39:49.770Z,34.00
2018-04-26T16:42:18.021Z,34.10
2018-04-26T16:44:47.000Z,34.60
2018-04-26T16:47:16.021Z,34.60
2018-04-26T16:49:44.297Z,34.60
2018-04-26T16:52:12.503Z,34.90
2018-04-26T16:54:40.742Z,34.60
2018-04-26T16:57:09.703Z,35.60
2018-04-26T16:59:37.944Z,35.60
2018-04-26T17:02:06.241Z,36.00
2018-04-26T17:04:36.092Z,36.00
2018-04-26T17:07:05.052Z,36.00
2018-04-26T17:09:33.968Z,36.70
2018-04-26T17:12:02.941Z,36.70
2018-04-26T17:14:32.003Z,37.40
2018-04-26T17:17:00.258Z,37.10
2018-04-26T17:19:28.400Z,37.80
2018-04-26T17:21:56.622Z,37.50
2018-04-26T17:24:24.851Z,37.10
2018-04-26T17:26:53.825Z,37.40
2018-04-26T17:29:22.813Z,38.00
2018-04-26T17:31:51.098Z,37.20
2018-04-26T17:34:20.078Z,37.20
2018-04-26T17:36:48.377Z,37.10
2018-04-26T17:39:17.375Z,36.80
2018-04-26T17:41:46.350Z,37.20
2018-04-26T17:44:15.371Z,37.70
2018-04-26T17:46:44.341Z,37.40
2018-04-26T17:49:13.324Z,37.70
2018-04-26T17:51:42.301Z,37.90
2018-04-26T17:54:10.524Z,37.80
2018-04-26T17:56:38.746Z,37.80
2018-04-26T17:59:06.974Z,38.30
2018-04-26T18:01:35.219Z,38.50
2018-04-26T18:04:04.324Z,38.20
2018-04-26T18:06:32.472Z,38.20
2018-04-26T18:09:00.689Z,38.20
2018-04-26T18:11:28.893Z,38.50
2018-04-26T18:13:57.120Z,38.40
2018-04-26T18:16:25.406Z,38.50
2018-04-26T18:18:53.643Z,38.80
2018-04-26T18:21:21.951Z,38.70
2018-04-26T18:23:51.029Z,38.20
2018-04-26T18:26:19.316Z,38.20
2018-04-26T18:28:47.554Z,38.40
2018-04-26T18:31:15.768Z,38.10
2018-04-26T18:33:43.993Z,38.00
2018-04-26T18:36:12.269Z,38.30
2018-04-26T18:38:40.480Z,38.50
2018-04-26T18:41:09.524Z,38.90
2018-04-26T18:43:37.760Z,38.80
2018-04-26T18:46:06.742Z,39.30
2018-04-26T18:48:35.720Z,39.30
2018-04-26T18:51:04.108Z,39.30
2018-04-26T18:53:32.241Z,39.60
2018-04-26T18:56:00.491Z,39.70
2018-04-26T18:58:28.705Z,39.80
2018-04-26T19:00:56.920Z,40.00
2018-04-26T19:03:25.148Z,40.00
2018-04-26T19:05:53.375Z,40.00
2018-04-26T19:08:22.325Z,40.20
2018-04-26T19:10:51.459Z,40.30
2018-04-26T19:13:20.416Z,40.30
2018-04-26T19:15:48.704Z,40.20
2018-04-26T19:18:16.873Z,40.20
2018-04-26T19:20:45.181Z,40.30
2018-04-26T19:23:14.447Z,40.80
2018-04-26T19:25:43.449Z,40.90
2018-04-26T19:28:12.458Z,41.20
2018-04-26T19:30:41.450Z,41.40
2018-04-26T19:33:10.449Z,41.40
2018-04-26T19:35:38.720Z,41.40
2018-04-26T19:38:06.936Z,41.70
2018-04-26T19:40:35.201Z,41.50
2018-04-26T19:43:03.692Z,41.50
2018-04-26T19:45:32.060Z,41.80
2018-04-26T19:48:00.248Z,41.80
2018-04-26T19:50:28.468Z,41.90
2018-04-26T19:52:57.485Z,42.30
2018-04-26T19:55:25.757Z,42.20
2018-04-26T19:57:54.018Z,42.10
2018-04-26T20:00:23.046Z,42.70
2018-04-26T20:02:51.280Z,42.70
2018-04-26T20:05:19.512Z,43.00
2018-04-26T20:07:47.738Z,43.00
2018-04-26T20:10:16.025Z,43.30
2018-04-26T20:12:44.984Z,43.70
2018-04-26T20:15:14.033Z,43.80
2018-04-26T20:17:42.280Z,43.80
2018-04-26T20:20:10.951Z,44.20
2018-04-26T20:22:39.948Z,44.20
2018-04-26T20:25:08.956Z,44.30
2018-04-26T20:27:37.203Z,44.20
2018-04-26T20:30:05.766Z,44.20
2018-04-26T20:32:34.086Z,43.90
2018-04-26T20:35:02.300Z,44.50
2018-04-26T20:37:30.551Z,44.70
2018-04-26T20:39:58.829Z,44.60
2018-04-26T20:42:27.046Z,45.30
2018-04-26T20:44:55.306Z,44.60
2018-04-26T20:47:23.573Z,45.20
2018-04-26T20:49:51.802Z,45.30
2018-04-26T20:52:20.782Z,45.70
2018-04-26T20:54:49.803Z,46.20
2018-04-26T20:57:18.066Z,46.10
2018-04-26T20:59:48.045Z,46.30
2018-04-26T21:02:17.780Z,46.50
2018-04-26T21:04:46.750Z,46.80
2018-04-26T21:07:14.978Z,46.70
2018-04-26T21:09:43.188Z,47.10
2018-04-26T21:12:12.967Z,47.30
2018-04-26T21:14:41.210Z,47.30
2018-04-26T21:17:09.485Z,47.10
2018-04-26T21:19:37.664Z,47.70
2018-04-26T21:22:05.900Z,47.30
2018-04-26T21:24:34.485Z,47.80
2018-04-26T21:27:02.744Z,48.30
2018-04-26T21:29:30.962Z,48.50
2018-04-26T21:31:59.945Z,48.10
2018-04-26T21:34:28.159Z,48.10
2018-04-26T21:36:56.414Z,48.30
2018-04-26T21:39:24.620Z,47.80
2018-04-26T21:41:52.855Z,48.20
2018-04-26T21:44:21.951Z,47.70
2018-04-26T21:46:51.768Z,47.90
2018-04-26T21:49:19.510Z,47.90
2018-04-26T21:51:53.564Z,48.00
2018-04-26T21:54:27.508Z,48.20
2018-04-26T21:57:01.411Z,48.40
2018-04-26T21:59:35.413Z,48.80
2018-04-26T22:02:09.343Z,48.70
2018-04-26T22:04:43.185Z,49.00
2018-04-26T22:07:11.424Z,49.20
2018-04-26T22:09:39.728Z,49.70
2018-04-26T22:12:08.726Z,50.20
2018-04-26T22:14:37.692Z,50.30
2018-04-26T22:17:05.992Z,50.30
2018-04-26T22:19:34.203Z,50.50
2018-04-26T22:22:02.428Z,50.40
2018-04-26T22:24:31.402Z,50.20
2018-04-26T22:26:59.628Z,50.10
2018-04-26T22:29:27.832Z,49.80
2018-04-26T22:31:56.182Z,49.80
2018-04-26T22:34:24.404Z,49.30
2018-04-26T22:36:52.634Z,49.00
2018-04-26T22:39:20.892Z,48.90
2018-04-26T22:41:49.184Z,48.50
2018-04-26T22:44:17.438Z,48.50
2018-04-26T22:46:45.642Z,48.40
2018-04-26T22:49:13.864Z,48.30
2018-04-26T22:51:42.838Z,49.70
2018-04-26T22:54:11.161Z,49.60
2018-04-26T22:56:39.374Z,50.50
2018-04-26T22:59:07.697Z,50.30
2018-04-26T23:01:36.662Z,51.20
2018-04-26T23:04:04.969Z,51.20
2018-04-26T23:06:33.181Z,50.00
2018-04-26T23:09:01.515Z,50.70
2018-04-26T23:11:29.804Z,51.50
2018-04-26T23:13:58.089Z,51.70
2018-04-26T23:16:26.299Z,51.70
2018-04-26T23:18:54.546Z,51.50
2018-04-26T23:21:22.846Z,51.80
2018-04-26T23:23:51.090Z,51.70
2018-04-26T23:26:19.325Z,51.60
2018-04-26T23:28:47.633Z,51.50
2018-04-26T23:31:15.854Z,51.80
2018-04-26T23:33:44.082Z,51.60
2018-04-26T23:36:12.305Z,51.70
2018-04-26T23:38:40.562Z,51.90
2018-04-26T23:41:08.821Z,52.50
2018-04-26T23:43:37.081Z,54.80
2018-04-26T23:46:05.357Z,54.00
2018-04-26T23:48:33.588Z,54.20
2018-04-26T23:51:01.843Z,54.80
2018-04-26T23:53:30.075Z,54.70
2018-04-26T23:55:59.100Z,55.30
2018-04-26T23:58:27.371Z,55.30
